D/T METAR WX W/DIR W/SPE G/SPE TEMP DEWP
8/12/19 09:20 EGNR 080920Z 25019KT 9999 SCT020 09/02 Q0995 WSW (250°) 21.9mph 9°C 2°C
8/12/19 08:50 EGNR 080850Z 25019KT 9999 FEW020 09/03 Q0995 WSW (250°) 21.9mph 9°C 3°C
8/12/19 08:20 EGNR 080820Z 25018G28KT 9999 SCT020 08/03 Q0995 WSW (250°) 20.7mph 32.2mph 8°C 3°C
7/12/19 18:50 EGNR 071850Z 14010KT 9999 SCT020 09/06 Q1004 SE (140°) 11.5mph 9°C 6°C
7/12/19 18:20 EGNR 071820Z 15007KT 9999 SCT018 10/07 Q1005 SSE (150°) 8.1mph 10°C 7°C
7/12/19 17:20 EGNR 071720Z 13005KT 090V160 9999 SCT018 10/07 Q1006 SE (130°) 5.8mph 10°C 7°C
7/12/19 16:50 EGNR 071650Z 19011KT 9999 SCT018 11/07 Q1006 S (190°) 12.7mph 11°C 7°C
7/12/19 16:20 EGNR 071620Z 20011KT 9999 SCT018 11/07 Q1007 SSW (200°) 12.7mph 11°C 7°C
7/12/19 15:50 EGNR 071550Z 20012KT 9999 FEW018 SCT048 11/07 Q1007 SSW (200°) 13.8mph 11°C 7°C
7/12/19 15:20 EGNR 071520Z 21013KT 9999 FEW021 SCT048 11/07 Q1008 SSW (210°) 15.0mph 11°C 7°C
7/12/19 14:50 EGNR 071450Z 22012KT 9999 FEW023 BKN048 11/07 Q1008 SW (220°) 13.8mph 11°C 7°C
7/12/19 14:20 EGNR 071420Z 22015G25KT 9999 FEW023 BKN048 11/07 Q1008 SW (220°) 17.3mph 28.8mph 11°C 7°C
7/12/19 13:50 EGNR 071350Z 21009G21KT 160V250 9999 FEW023 SCT041 BKN048 11/07 Q1009 SSW (210°) 10.4mph 24.2mph 11°C 7°C
7/12/19 13:20 EGNR 071320Z 17008KT 120V230 9999 FEW023 SCT040 11/06 Q1009 S (170°) 9.2mph 11°C 6°C
7/12/19 12:50 EGNR 071250Z 20009KT 160V230 9999 FEW022 SCT041 11/06 Q1009 SSW (200°) 10.4mph 11°C 6°C
7/12/19 12:20 EGNR 071220Z 18009KT 120V280 9999 FEW022 BKN042 10/06 Q1010 S (180°) 10.4mph 10°C 6°C
7/12/19 11:20 EGNR 071120Z 21008KT 160V240 9999 FEW022 BKN044 10/06 Q1011 SSW (210°) 9.2mph 10°C 6°C
7/12/19 10:50 EGNR 071050Z 22009KT 9999 FEW022 SCT040 10/06 Q1011 SW (220°) 10.4mph 10°C 6°C
7/12/19 10:20 EGNR 071020Z 24010KT 9999 SCT040 10/05 Q1011 WSW (240°) 11.5mph 10°C 5°C
7/12/19 09:50 EGNR 070950Z 24011KT 9999 SCT037 10/05 Q1012 WSW (240°) 12.7mph 10°C 5°C
7/12/19 09:20 EGNR 070920Z 23010KT 9999 BKN035 10/05 Q1011 SW (230°) 11.5mph 10°C 5°C
7/12/19 08:20 EGNR 070820Z 16002KT 9999 BKN023 08/06 Q1012 SSE (160°) 2.3mph 8°C 6°C
6/12/19 20:50 EGNR 062050Z 29009KT 230V320 9999 FEW018 BKN043 10/06 Q1006 WNW (290°) 10.4mph 10°C 6°C
6/12/19 19:50 EGNR 061950Z 29010G20KT 250V320 9999 FEW018 BKN043 10/06 Q1005 WNW (290°) 11.5mph 23.0mph 10°C 6°C
6/12/19 19:20 EGNR 061920Z 29012KT 240V310 9999 FEW018 BKN043 10/06 Q1005 WNW (290°) 13.8mph 10°C 6°C
6/12/19 18:20 EGNR 061820Z 29011KT 250V330 9999 FEW018 SCT043 10/06 Q1004 WNW (290°) 12.7mph 10°C 6°C
6/12/19 17:50 EGNR 061750Z 29012G25KT 250V320 9999 FEW018 SCT043 10/06 Q1003 WNW (290°) 13.8mph 28.8mph 10°C 6°C
6/12/19 17:20 EGNR 061720Z 28011KT 240V310 9999 FEW018 SCT043 10/06 Q1002 W (280°) 12.7mph 10°C 6°C
6/12/19 16:50 EGNR 061650Z 28013KT 240V320 9999 SCT018 SCT043 10/06 Q1002 W (280°) 15.0mph 10°C 6°C
6/12/19 16:20 EGNR 061620Z 29010KT 240V320 9999 VCSH SCT019 SCT046 09/06 Q1001 VCSH WNW (290°) 11.5mph 9°C 6°C
6/12/19 15:50 EGNR 061550Z 28011KT 250V310 9999 VCSH SCT020 SCT046 10/06 Q1000 VCSH W (280°) 12.7mph 10°C 6°C
6/12/19 15:20 EGNR 061520Z 29012KT 250V320 9999 -RA SCT033 BKN046 10/07 Q1000 -RA WNW (290°) 13.8mph 10°C 7°C
6/12/19 14:50 EGNR 061450Z 29008KT 250V320 9999 VCSH SCT033 BKN046 10/07 Q0999 VCSH WNW (290°) 9.2mph 10°C 7°C
6/12/19 14:20 EGNR 061420Z 29011KT 250V320 9999 -RA SCT033 BKN045 09/07 Q0999 -RA WNW (290°) 12.7mph 9°C 7°C
6/12/19 13:20 EGNR 061320Z 29005KT 260V350 9999 -RA SCT015 SCT040 11/07 Q0998 -RA WNW (290°) 5.8mph 11°C 7°C
6/12/19 12:50 EGNR 061250Z 25014KT 9999 -RA SCT015 SCT036 11/08 Q0998 -RA WSW (250°) 16.1mph 11°C 8°C
6/12/19 12:20 EGNR 061220Z 24015KT 220V280 9999 SCT014 SCT035 12/08 Q0998 WSW (240°) 17.3mph 12°C 8°C
6/12/19 11:50 EGNR 061150Z 23012KT 9999 SCT014 SCT023 13/08 Q0998 SW (230°) 13.8mph 13°C 8°C
6/12/19 11:20 EGNR 061120Z 24010KT 210V290 9999 SCT014 SCT024 13/08 Q0999 WSW (240°) 11.5mph 13°C 8°C
6/12/19 10:50 EGNR 061050Z 23008KT 190V270 9999 SCT014 BKN022 13/09 Q0999 SW (230°) 9.2mph 13°C 9°C
6/12/19 09:50 EGNR 060950Z 25010KT 220V320 9999 FEW015 BKN022 13/09 Q0999 WSW (250°) 11.5mph 13°C 9°C
6/12/19 09:20 EGNR 060920Z 23012KT 9999 FEW019 BKN022 13/09 Q0999 SW (230°) 13.8mph 13°C 9°C
6/12/19 08:50 EGNR 060850Z 23010KT 200V290 9999 FEW019 BKN023 12/09 Q1000 SW (230°) 11.5mph 12°C 9°C
6/12/19 08:20 EGNR 060820Z VRB05KT 9999 BKN014 12/09 Q1000 N (0°) 5.8mph 12°C 9°C
6/12/19 07:50 EGNR 060750Z 14009KT 9999 OVC013 12/10 Q1000 SE (140°) 10.4mph 12°C 10°C
6/12/19 07:20 EGNR 060720Z 16006KT 100V240 9999 -RA OVC013 12/10 Q1000 -RA SSE (160°) 6.9mph 12°C 10°C
6/12/19 06:20 EGNR 060620Z 19005G16KT 140V250 9999 SCT014 BKN033 13/10 Q1001 S (190°) 5.8mph 18.4mph 13°C 10°C
5/12/19 20:50 EGNR 052050Z 23023G36KT 9999 -SHRA FEW038 13/09 Q1005 -SHRA SW (230°) 26.5mph 41.4mph 13°C 9°C